createdAt,value
2023-02-11T00:01:31.215Z,18.76
2023-02-11T00:04:00.370Z,18.77
2023-02-11T00:06:30.248Z,18.76
2023-02-11T00:08:59.636Z,18.74
2023-02-11T00:11:31.711Z,18.75
2023-02-11T00:13:59.404Z,18.75
2023-02-11T00:16:26.223Z,18.74
2023-02-11T00:18:58.798Z,18.76
2023-02-11T00:21:30.592Z,18.72
2023-02-11T00:23:59.798Z,18.75
2023-02-11T00:26:28.264Z,18.74
2023-02-11T00:28:57.094Z,18.75
2023-02-11T00:31:26.092Z,18.72
2023-02-11T00:33:52.988Z,18.67
2023-02-11T00:36:23.353Z,18.63
2023-02-11T00:38:52.735Z,18.61
2023-02-11T00:41:19.553Z,18.59
2023-02-11T00:43:48.739Z,18.57
2023-02-11T00:46:17.722Z,18.56
2023-02-11T00:48:47.055Z,18.53
2023-02-11T00:51:13.821Z,18.60
2023-02-11T00:53:45.118Z,18.64
2023-02-11T00:56:13.918Z,18.73
2023-02-11T00:58:40.542Z,18.72
2023-02-11T01:01:07.854Z,18.71
2023-02-11T01:03:34.783Z,18.75
2023-02-11T01:06:03.598Z,18.75
2023-02-11T01:08:30.317Z,18.74
2023-02-11T01:11:05.271Z,18.72
2023-02-11T01:13:35.053Z,18.76
2023-02-11T01:16:01.802Z,18.73
2023-02-11T01:18:30.715Z,18.74
2023-02-11T01:20:59.490Z,18.72
2023-02-11T01:23:28.614Z,18.70
2023-02-11T01:25:55.340Z,18.70
2023-02-11T01:28:24.318Z,18.71
2023-02-11T01:30:55.823Z,18.70
2023-02-11T01:33:25.940Z,18.70
2023-02-11T01:35:52.829Z,18.68
2023-02-11T01:38:24.910Z,18.66
2023-02-11T01:40:56.833Z,18.67
2023-02-11T01:43:27.252Z,18.69
2023-02-11T01:45:53.859Z,18.66
2023-02-11T01:48:27.731Z,18.64
2023-02-11T01:51:01.822Z,18.67
2023-02-11T01:53:47.782Z,18.67
2023-02-11T01:56:32.991Z,18.61
2023-02-11T01:59:04.210Z,18.62
2023-02-11T02:01:33.507Z,18.63
2023-02-11T02:04:00.909Z,18.61
2023-02-11T02:06:36.290Z,18.56
2023-02-11T02:09:09.035Z,18.56
2023-02-11T02:11:37.885Z,18.56
2023-02-11T02:14:06.971Z,18.54
2023-02-11T02:16:37.393Z,18.48
2023-02-11T02:19:35.125Z,18.52
2023-02-11T02:22:20.441Z,18.51
2023-02-11T02:25:09.980Z,18.52
2023-02-11T02:28:12.499Z,18.46
2023-02-11T02:30:54.222Z,18.45
2023-02-11T02:33:33.060Z,18.47
2023-02-11T02:36:24.959Z,18.48
2023-02-11T02:39:04.309Z,18.48
2023-02-11T02:41:36.096Z,18.44
2023-02-11T02:44:02.910Z,18.44
2023-02-11T02:46:31.632Z,18.48
2023-02-11T02:49:01.704Z,18.45
2023-02-11T02:51:43.584Z,18.44
2023-02-11T02:54:13.092Z,18.45
2023-02-11T02:57:21.670Z,18.43
2023-02-11T03:00:10.088Z,18.44
2023-02-11T03:02:42.418Z,18.40
2023-02-11T03:05:21.926Z,18.42
2023-02-11T03:08:10.678Z,18.44
2023-02-11T03:10:40.441Z,18.42
2023-02-11T03:13:09.730Z,18.42
2023-02-11T03:15:44.742Z,18.37
2023-02-11T03:18:17.590Z,18.35
2023-02-11T03:20:46.095Z,18.37
2023-02-11T03:23:17.914Z,18.39
2023-02-11T03:25:51.526Z,18.35
2023-02-11T03:28:43.250Z,18.39
2023-02-11T03:31:26.252Z,18.35
2023-02-11T03:34:10.373Z,18.34
2023-02-11T03:37:01.334Z,18.33
2023-02-11T03:39:31.238Z,18.37
2023-02-11T03:42:00.702Z,18.33
2023-02-11T03:44:30.914Z,18.34
2023-02-11T03:47:02.447Z,18.32
2023-02-11T03:49:31.876Z,18.28
2023-02-11T03:51:58.565Z,18.25
2023-02-11T03:54:29.779Z,18.26
2023-02-11T03:57:00.629Z,18.26
2023-02-11T03:59:27.422Z,18.27
2023-02-11T04:01:57.737Z,18.23
2023-02-11T04:04:25.097Z,18.20
2023-02-11T04:06:53.892Z,18.17
2023-02-11T04:09:20.717Z,18.19
2023-02-11T04:11:47.468Z,18.20
2023-02-11T04:14:14.147Z,18.12
2023-02-11T04:16:40.913Z,18.19
2023-02-11T04:19:10.066Z,18.19
2023-02-11T04:21:36.773Z,18.17
2023-02-11T04:24:03.539Z,18.19
2023-02-11T04:26:32.791Z,18.22
2023-02-11T04:29:01.876Z,18.24
2023-02-11T04:31:33.354Z,18.24
2023-02-11T04:34:00.039Z,18.21
2023-02-11T04:36:26.676Z,18.19
2023-02-11T04:38:53.254Z,18.24
2023-02-11T04:41:19.835Z,18.17
2023-02-11T04:43:51.152Z,18.18
2023-02-11T04:46:17.759Z,18.21
2023-02-11T04:48:46.836Z,18.19
2023-02-11T04:51:13.438Z,18.17
2023-02-11T04:53:40.272Z,18.15
2023-02-11T04:56:10.103Z,18.17
2023-02-11T04:58:38.987Z,18.12
2023-02-11T05:01:12.415Z,18.13
2023-02-11T05:03:41.315Z,18.15
2023-02-11T05:06:10.178Z,18.10
2023-02-11T05:08:39.452Z,18.13
2023-02-11T05:11:06.161Z,18.14
2023-02-11T05:13:32.904Z,18.10
2023-02-11T05:16:02.139Z,18.10
2023-02-11T05:18:28.764Z,18.11
2023-02-11T05:21:02.746Z,18.07
2023-02-11T05:23:32.104Z,18.11
2023-02-11T05:25:58.758Z,18.10
2023-02-11T05:28:25.528Z,18.11
2023-02-11T05:30:54.446Z,18.07
2023-02-11T05:33:21.095Z,18.06
2023-02-11T05:35:47.865Z,18.04
2023-02-11T05:38:16.732Z,18.05
2023-02-11T05:40:43.429Z,18.07
2023-02-11T05:43:12.819Z,18.09
2023-02-11T05:45:41.623Z,18.08
2023-02-11T05:48:11.257Z,18.06
2023-02-11T05:50:40.067Z,18.07
2023-02-11T05:53:06.960Z,18.07
2023-02-11T05:55:36.019Z,18.06
2023-02-11T05:58:02.685Z,18.06
2023-02-11T06:00:29.308Z,18.06
2023-02-11T06:02:59.138Z,18.05
2023-02-11T06:05:28.527Z,18.06
2023-02-11T06:07:57.396Z,18.05
2023-02-11T06:10:24.199Z,18.01
2023-02-11T06:12:55.513Z,17.98
2023-02-11T06:15:24.481Z,18.00
2023-02-11T06:17:50.999Z,18.01
2023-02-11T06:20:17.587Z,18.00
2023-02-11T06:22:46.476Z,17.98
2023-02-11T06:25:17.836Z,17.99
2023-02-11T06:27:44.337Z,17.96
2023-02-11T06:30:11.105Z,17.97
2023-02-11T06:32:44.302Z,17.97
2023-02-11T06:35:12.280Z,17.95
2023-02-11T06:37:44.816Z,17.98
2023-02-11T06:40:14.318Z,18.00
2023-02-11T06:42:43.824Z,17.96
2023-02-11T06:45:11.091Z,17.96
2023-02-11T06:47:37.749Z,18.00
2023-02-11T06:50:04.423Z,17.97
2023-02-11T06:52:33.311Z,17.96
2023-02-11T06:55:02.214Z,17.96
2023-02-11T06:57:34.102Z,17.96
2023-02-11T07:00:05.880Z,17.96
2023-02-11T07:02:32.537Z,17.96
2023-02-11T07:05:01.456Z,17.96
2023-02-11T07:07:34.246Z,17.97
2023-02-11T07:10:04.251Z,17.98
2023-02-11T07:12:31.028Z,18.01
2023-02-11T07:14:57.616Z,17.97
2023-02-11T07:17:26.326Z,17.95
2023-02-11T07:19:57.579Z,17.94
2023-02-11T07:22:26.885Z,17.91
2023-02-11T07:24:53.439Z,17.89
2023-02-11T07:27:19.902Z,17.89
2023-02-11T07:29:51.300Z,17.89
2023-02-11T07:32:17.787Z,17.87
2023-02-11T07:34:48.145Z,17.89
2023-02-11T07:37:19.604Z,17.92
2023-02-11T07:39:48.660Z,17.92
2023-02-11T07:42:17.621Z,17.95
2023-02-11T07:44:48.041Z,18.00
2023-02-11T07:47:18.822Z,18.00
2023-02-11T07:49:45.503Z,18.02
2023-02-11T07:52:14.872Z,18.05
2023-02-11T07:54:43.757Z,18.02
2023-02-11T07:57:10.225Z,18.05
2023-02-11T07:59:39.136Z,18.07
2023-02-11T08:02:08.883Z,18.11
2023-02-11T08:08:34.063Z,14.23
2023-02-11T08:11:09.546Z,13.83
2023-02-11T08:13:41.375Z,13.65
2023-02-11T08:18:52.603Z,12.86
2023-02-11T08:21:24.126Z,12.56
2023-02-11T08:23:53.459Z,12.27
2023-02-11T08:26:22.736Z,12.05
2023-02-11T08:28:50.703Z,11.87
2023-02-11T08:31:22.073Z,11.80
2023-02-11T08:33:54.733Z,11.98
2023-02-11T08:36:25.600Z,12.00
2023-02-11T08:39:12.139Z,11.97
2023-02-11T08:41:48.460Z,12.50
2023-02-11T08:44:15.116Z,12.54
2023-02-11T08:46:43.889Z,13.96
2023-02-11T08:49:15.251Z,14.73
2023-02-11T08:51:44.074Z,15.02
2023-02-11T08:54:12.980Z,15.34
2023-02-11T08:56:43.526Z,15.56
2023-02-11T08:59:15.672Z,15.70
2023-02-11T09:01:47.159Z,15.86
2023-02-11T09:04:14.040Z,16.06
2023-02-11T09:06:42.765Z,16.24
2023-02-11T09:09:13.677Z,16.37
2023-02-11T09:11:43.354Z,16.54
2023-02-11T09:14:18.741Z,16.67
2023-02-11T09:16:50.716Z,16.78
2023-02-11T09:19:17.661Z,16.87
2023-02-11T09:21:44.281Z,17.01
2023-02-11T09:24:11.248Z,17.08
2023-02-11T09:26:40.539Z,17.17
2023-02-11T09:29:09.334Z,17.29
2023-02-11T09:31:36.150Z,17.33
2023-02-11T09:34:06.385Z,17.45
2023-02-11T09:36:40.546Z,17.57
2023-02-11T09:39:19.978Z,17.67
2023-02-11T09:42:01.753Z,17.73
2023-02-11T09:44:33.021Z,17.84
2023-02-11T09:47:07.361Z,17.92
2023-02-11T09:49:45.719Z,18.00
2023-02-11T09:52:42.829Z,18.05
2023-02-11T09:55:27.049Z,18.09
2023-02-11T09:57:53.830Z,18.11
2023-02-11T10:01:21.651Z,18.11
2023-02-11T10:03:50.809Z,18.07
2023-02-11T10:06:28.961Z,18.12
2023-02-11T10:09:31.343Z,18.14
2023-02-11T10:12:09.881Z,18.16
2023-02-11T10:14:58.496Z,18.16
2023-02-11T10:17:54.498Z,18.18
2023-02-11T10:20:36.375Z,18.19
2023-02-11T10:23:13.887Z,18.21
2023-02-11T10:25:45.238Z,18.21
2023-02-11T10:28:25.146Z,18.21
2023-02-11T10:30:52.324Z,18.22
2023-02-11T10:33:32.913Z,18.22
2023-02-11T10:35:59.777Z,18.22
2023-02-11T10:38:29.180Z,18.27
2023-02-11T10:40:55.842Z,18.32
2023-02-11T10:43:27.748Z,18.39
2023-02-11T10:45:57.637Z,18.41
2023-02-11T10:48:50.649Z,18.43
2023-02-11T10:51:18.625Z,18.46
2023-02-11T10:53:49.764Z,18.54
2023-02-11T10:56:31.451Z,18.56
2023-02-11T10:59:31.371Z,18.60
2023-02-11T11:02:02.412Z,18.66
2023-02-11T11:04:46.754Z,18.71
2023-02-11T11:07:30.041Z,18.75
2023-02-11T11:09:59.669Z,18.75
2023-02-11T11:12:42.064Z,18.81
2023-02-11T11:15:29.928Z,18.84
2023-02-11T11:18:22.379Z,18.87
2023-02-11T11:20:59.370Z,18.87
2023-02-11T11:23:28.524Z,18.89
2023-02-11T11:26:05.672Z,18.84
2023-02-11T11:28:40.238Z,18.81
2023-02-11T11:31:33.042Z,18.78
2023-02-11T11:34:02.631Z,18.77
2023-02-11T11:36:40.104Z,18.76
2023-02-11T11:39:24.631Z,18.75
2023-02-11T11:42:01.199Z,18.69
2023-02-11T11:44:35.209Z,18.71
2023-02-11T11:47:17.132Z,18.67
2023-02-11T11:50:31.885Z,18.67
2023-02-11T11:53:00.660Z,18.66
2023-02-11T11:55:45.423Z,18.61
2023-02-11T11:58:22.503Z,18.62
2023-02-11T12:01:05.857Z,18.58
2023-02-11T12:04:03.307Z,18.57
2023-02-11T12:07:05.059Z,18.54
2023-02-11T12:09:43.728Z,18.53
2023-02-11T12:12:35.430Z,18.53
2023-02-11T12:15:02.068Z,18.49
2023-02-11T12:17:46.092Z,18.46
2023-02-11T12:20:37.581Z,18.44
2023-02-11T12:23:22.940Z,18.42
2023-02-11T12:26:20.771Z,18.39
2023-02-11T12:29:11.060Z,18.39
2023-02-11T12:31:47.552Z,18.35
2023-02-11T12:34:39.205Z,18.37
2023-02-11T12:37:21.105Z,18.36
2023-02-11T12:39:51.442Z,18.38
2023-02-11T12:42:55.563Z,18.33
2023-02-11T12:45:27.917Z,18.27
2023-02-11T12:48:00.954Z,18.29
2023-02-11T12:50:39.160Z,18.28
2023-02-11T12:53:05.699Z,18.28
2023-02-11T12:55:38.436Z,18.23
2023-02-11T12:58:07.313Z,18.23
2023-02-11T13:00:47.783Z,18.22
2023-02-11T13:03:40.197Z,18.20
2023-02-11T13:06:14.922Z,18.21
2023-02-11T13:08:46.707Z,18.17
2023-02-11T13:11:44.124Z,18.17
2023-02-11T13:14:23.911Z,18.15
2023-02-11T13:16:58.511Z,18.16
2023-02-11T13:19:25.436Z,18.11
2023-02-11T13:22:04.509Z,18.13
2023-02-11T13:24:58.393Z,18.13
2023-02-11T13:27:41.848Z,18.11
2023-02-11T13:30:35.107Z,18.10
2023-02-11T13:33:02.233Z,18.14
2023-02-11T13:35:52.116Z,18.07
2023-02-11T13:38:22.305Z,18.06
2023-02-11T13:41:01.321Z,18.07
2023-02-11T13:43:32.954Z,18.06
2023-02-11T13:46:14.926Z,18.04
2023-02-11T13:48:52.699Z,18.03
2023-02-11T13:51:39.314Z,17.99
2023-02-11T13:54:07.728Z,18.01
2023-02-11T13:56:40.918Z,18.01
2023-02-11T13:59:26.739Z,18.01
2023-02-11T14:02:12.066Z,18.01
2023-02-11T14:05:23.172Z,17.99
2023-02-11T14:08:30.195Z,18.01
2023-02-11T14:11:02.084Z,17.98
2023-02-11T14:13:47.566Z,17.97
2023-02-11T14:16:31.617Z,17.97
2023-02-11T14:19:02.628Z,17.97
2023-02-11T14:21:29.648Z,17.95
2023-02-11T14:24:05.232Z,17.95
2023-02-11T14:26:40.917Z,17.93
2023-02-11T14:29:22.617Z,17.93
2023-02-11T14:32:16.596Z,17.93
2023-02-11T14:35:01.538Z,17.93
2023-02-11T14:37:50.549Z,17.91
2023-02-11T14:40:33.434Z,17.93
2023-02-11T14:43:22.883Z,17.90
2023-02-11T14:45:56.203Z,17.89
2023-02-11T14:48:50.183Z,17.89
2023-02-11T14:51:31.724Z,17.89
2023-02-11T14:54:13.331Z,17.89
2023-02-11T14:56:39.950Z,17.90
2023-02-11T14:59:22.574Z,17.88
2023-02-11T15:01:56.668Z,17.87
2023-02-11T15:04:28.223Z,17.86
2023-02-11T15:06:57.515Z,17.83
2023-02-11T15:09:32.336Z,17.84
2023-02-11T15:12:01.181Z,17.83
2023-02-11T15:14:31.953Z,17.81
2023-02-11T15:17:03.181Z,17.83
2023-02-11T15:19:36.126Z,17.82
2023-02-11T15:22:10.650Z,17.84
2023-02-11T15:24:40.502Z,17.79
2023-02-11T15:27:16.299Z,17.83
2023-02-11T15:29:49.634Z,17.82
2023-02-11T15:32:22.635Z,17.82
2023-02-11T15:34:52.682Z,17.81
2023-02-11T15:37:35.271Z,17.82
2023-02-11T15:40:19.160Z,17.81
2023-02-11T15:43:07.842Z,17.81
2023-02-11T15:46:01.582Z,17.79
2023-02-11T15:48:37.609Z,17.79
2023-02-11T15:51:31.234Z,17.79
2023-02-11T15:54:05.727Z,17.78
2023-02-11T15:56:44.254Z,17.81
2023-02-11T15:59:16.889Z,17.79
2023-02-11T16:01:45.856Z,17.78
2023-02-11T16:04:22.108Z,17.79
2023-02-11T16:06:49.299Z,17.80
2023-02-11T16:09:18.811Z,17.79
2023-02-11T16:11:48.446Z,17.81
2023-02-11T16:14:29.482Z,17.79
2023-02-11T16:17:10.996Z,17.77
2023-02-11T16:19:45.898Z,17.78
2023-02-11T16:22:22.131Z,17.77
2023-02-11T16:24:53.606Z,17.76
2023-02-11T16:27:24.712Z,17.78
2023-02-11T16:29:53.740Z,17.77
2023-02-11T16:32:24.723Z,17.75
2023-02-11T16:34:57.934Z,17.76
2023-02-11T16:37:27.279Z,17.76
2023-02-11T16:39:59.782Z,17.76
2023-02-11T16:42:28.557Z,17.75
2023-02-11T16:44:57.668Z,17.75
2023-02-11T16:47:30.012Z,17.75
2023-02-11T16:49:59.423Z,17.73
2023-02-11T16:52:28.340Z,17.73
2023-02-11T16:54:58.250Z,17.73
2023-02-11T16:57:30.099Z,17.73
2023-02-11T17:00:00.232Z,17.75
2023-02-11T17:02:33.593Z,17.73
2023-02-11T17:05:01.797Z,17.74
2023-02-11T17:07:28.599Z,17.75
2023-02-11T17:09:58.445Z,17.73
2023-02-11T17:12:27.253Z,17.74
2023-02-11T17:14:54.054Z,17.73
2023-02-11T17:17:23.199Z,17.73
2023-02-11T17:19:53.040Z,17.72
2023-02-11T17:22:24.939Z,17.72
2023-02-11T17:24:51.628Z,17.71
2023-02-11T17:27:20.527Z,17.72
2023-02-11T17:29:49.693Z,17.72
2023-02-11T17:32:24.239Z,17.70
2023-02-11T17:34:56.311Z,17.71
2023-02-11T17:37:23.026Z,17.70
2023-02-11T17:39:50.062Z,17.72
2023-02-11T17:42:16.994Z,17.74
2023-02-11T17:44:44.456Z,17.74
2023-02-11T17:47:11.892Z,17.75
2023-02-11T17:49:42.170Z,17.73
2023-02-11T17:52:09.046Z,17.75
2023-02-11T17:54:37.917Z,17.75
2023-02-11T17:57:04.621Z,17.76
2023-02-11T17:59:35.406Z,17.78
2023-02-11T18:02:05.304Z,17.78
2023-02-11T18:04:32.275Z,17.78
2023-02-11T18:06:59.012Z,17.75
2023-02-11T18:09:26.812Z,17.76
2023-02-11T18:11:53.491Z,17.77
2023-02-11T18:14:25.228Z,17.77
2023-02-11T18:16:52.537Z,17.77
2023-02-11T18:19:19.500Z,17.76
2023-02-11T18:21:51.638Z,17.75
2023-02-11T18:24:18.395Z,17.75
2023-02-11T18:26:48.470Z,17.77
2023-02-11T18:29:17.823Z,17.76
2023-02-11T18:31:47.135Z,17.75
2023-02-11T18:34:15.948Z,17.77
2023-02-11T18:36:42.642Z,17.76
2023-02-11T18:39:09.409Z,17.76
2023-02-11T18:41:40.753Z,17.76
2023-02-11T18:44:07.207Z,17.77
2023-02-11T18:46:33.913Z,17.75
2023-02-11T18:49:03.805Z,17.75
2023-02-11T18:51:32.418Z,17.75
2023-02-11T18:54:01.768Z,17.77
2023-02-11T18:56:28.637Z,17.77
2023-02-11T18:59:03.717Z,17.75
2023-02-11T19:01:34.357Z,17.75
2023-02-11T19:04:05.239Z,17.75
2023-02-11T19:06:36.279Z,17.74
2023-02-11T19:09:11.203Z,17.76
2023-02-11T19:11:47.775Z,17.74
2023-02-11T19:14:28.346Z,17.76
2023-02-11T19:16:56.592Z,17.74
2023-02-11T19:19:28.578Z,17.74
2023-02-11T19:22:01.608Z,17.74
2023-02-11T19:24:30.972Z,17.75
2023-02-11T19:27:01.895Z,17.73
2023-02-11T19:29:29.205Z,17.75
2023-02-11T19:31:58.874Z,17.73
2023-02-11T19:34:28.793Z,17.74
2023-02-11T19:36:56.834Z,17.73
2023-02-11T19:39:24.774Z,17.73
2023-02-11T19:41:52.041Z,17.73
2023-02-11T19:44:23.867Z,17.73
2023-02-11T19:46:52.873Z,17.72
2023-02-11T19:49:26.409Z,17.73
2023-02-11T19:51:57.408Z,17.73
2023-02-11T19:54:29.881Z,17.70
2023-02-11T19:56:58.898Z,17.73
2023-02-11T19:59:25.543Z,17.73
2023-02-11T20:01:54.425Z,17.73
2023-02-11T20:04:21.243Z,17.71
2023-02-11T20:06:52.631Z,17.72
2023-02-11T20:09:21.489Z,17.71
2023-02-11T20:11:49.203Z,17.71
2023-02-11T20:14:15.949Z,17.71
2023-02-11T20:16:49.309Z,17.71
2023-02-11T20:19:25.212Z,17.67
2023-02-11T20:21:56.176Z,17.72
2023-02-11T20:24:23.257Z,17.72
2023-02-11T20:26:57.748Z,17.71
2023-02-11T20:29:31.206Z,17.70
2023-02-11T20:31:57.965Z,17.72
2023-02-11T20:34:29.553Z,17.72
2023-02-11T20:36:59.435Z,17.71
2023-02-11T20:39:26.840Z,17.71
2023-02-11T20:41:56.590Z,17.71
2023-02-11T20:44:25.466Z,17.70
2023-02-11T20:46:57.433Z,17.69
2023-02-11T20:49:24.499Z,17.69
2023-02-11T20:51:53.297Z,17.67
2023-02-11T20:54:22.619Z,17.67
2023-02-11T20:56:52.148Z,17.66
2023-02-11T20:59:19.321Z,17.66
2023-02-11T21:01:50.220Z,17.67
2023-02-11T21:04:18.689Z,17.66
2023-02-11T21:06:49.027Z,17.64
2023-02-11T21:09:25.050Z,17.63
2023-02-11T21:11:54.874Z,17.64
2023-02-11T21:14:22.333Z,17.63
2023-02-11T21:16:51.647Z,17.61
2023-02-11T21:19:18.545Z,17.62
2023-02-11T21:21:48.350Z,17.60
2023-02-11T21:24:15.260Z,17.62
2023-02-11T21:26:44.207Z,17.59
2023-02-11T21:29:13.647Z,17.63
2023-02-11T21:31:45.133Z,17.62
2023-02-11T21:34:12.032Z,17.62
2023-02-11T21:36:41.161Z,17.61
2023-02-11T21:39:10.598Z,17.63
2023-02-11T21:41:37.436Z,17.62
2023-02-11T21:44:09.367Z,17.63
2023-02-11T21:46:38.219Z,17.65
2023-02-11T21:49:04.885Z,17.62
2023-02-11T21:51:31.517Z,17.62
2023-02-11T21:54:03.028Z,17.64
2023-02-11T21:56:35.416Z,17.64
2023-02-11T21:59:06.770Z,17.62
2023-02-11T22:01:33.553Z,17.63
2023-02-11T22:04:00.267Z,17.60
2023-02-11T22:06:31.482Z,17.60
2023-02-11T22:09:00.332Z,17.60
2023-02-11T22:11:26.974Z,17.62
2023-02-11T22:13:57.791Z,17.60
2023-02-11T22:16:26.704Z,17.58
2023-02-11T22:18:53.554Z,16.20
2023-02-11T22:21:23.556Z,13.90
2023-02-11T22:23:50.847Z,12.84
2023-02-11T22:26:19.136Z,14.35
2023-02-11T22:28:47.962Z,15.41
2023-02-11T22:31:16.795Z,15.91
2023-02-11T22:33:46.048Z,16.19
2023-02-11T22:36:15.896Z,16.34
2023-02-11T22:38:42.563Z,16.48
2023-02-11T22:41:14.892Z,16.59
2023-02-11T22:43:46.435Z,16.67
2023-02-11T22:46:15.035Z,16.74
2023-02-11T22:48:41.835Z,16.81
2023-02-11T22:51:13.726Z,16.90
2023-02-11T22:53:44.662Z,16.95
2023-02-11T22:56:15.902Z,17.00
2023-02-11T22:58:42.445Z,17.04
2023-02-11T23:01:12.722Z,17.07
2023-02-11T23:03:41.578Z,17.11
2023-02-11T23:06:12.994Z,17.14
2023-02-11T23:08:42.885Z,17.17
2023-02-11T23:11:14.292Z,17.20
2023-02-11T23:13:44.166Z,17.23
2023-02-11T23:16:15.559Z,17.26
2023-02-11T23:18:43.134Z,17.28
2023-02-11T23:21:16.675Z,17.30
2023-02-11T23:23:45.591Z,17.30
2023-02-11T23:26:16.908Z,17.31
2023-02-11T23:28:45.968Z,17.31
2023-02-11T23:31:37.984Z,17.31
2023-02-11T23:34:04.993Z,17.30
2023-02-11T23:36:36.445Z,17.31
2023-02-11T23:39:05.896Z,17.30
2023-02-11T23:41:34.734Z,17.31
2023-02-11T23:44:03.587Z,17.31
2023-02-11T23:46:30.292Z,17.34
2023-02-11T23:48:59.329Z,17.35
2023-02-11T23:51:25.965Z,17.36
2023-02-11T23:53:54.860Z,17.38
2023-02-11T23:56:30.021Z,17.41
2023-02-11T23:58:57.580Z,17.40
